sensor_id;sensor_type;location;lat;lon;timestamp;temperature;humidity
4435;DHT22;46552;52.150;8.428;2022-09-13T00:01:25;18.60;98.70
4435;DHT22;46552;52.150;8.428;2022-09-13T00:03:52;18.60;98.90
4435;DHT22;46552;52.150;8.428;2022-09-13T00:06:20;18.60;98.80
4435;DHT22;46552;52.150;8.428;2022-09-13T00:08:50;18.60;98.70
4435;DHT22;46552;52.150;8.428;2022-09-13T00:11:20;18.60;98.60
4435;DHT22;46552;52.150;8.428;2022-09-13T00:13:48;18.70;98.60
4435;DHT22;46552;52.150;8.428;2022-09-13T00:16:17;18.70;98.50
4435;DHT22;46552;52.150;8.428;2022-09-13T00:18:45;18.70;98.50
4435;DHT22;46552;52.150;8.428;2022-09-13T00:21:13;18.70;98.40
4435;DHT22;46552;52.150;8.428;2022-09-13T00:23:43;18.80;98.40
4435;DHT22;46552;52.150;8.428;2022-09-13T00:26:13;18.70;98.30
4435;DHT22;46552;52.150;8.428;2022-09-13T00:28:43;18.70;98.20
4435;DHT22;46552;52.150;8.428;2022-09-13T00:31:11;18.80;98.30
4435;DHT22;46552;52.150;8.428;2022-09-13T00:33:39;18.80;98.30
4435;DHT22;46552;52.150;8.428;2022-09-13T00:36:08;18.80;98.20
4435;DHT22;46552;52.150;8.428;2022-09-13T00:38:36;18.70;98.10
4435;DHT22;46552;52.150;8.428;2022-09-13T00:41:04;18.80;98.10
4435;DHT22;46552;52.150;8.428;2022-09-13T00:43:43;18.80;98.10
4435;DHT22;46552;52.150;8.428;2022-09-13T00:46:14;18.80;98.10
4435;DHT22;46552;52.150;8.428;2022-09-13T00:48:44;18.80;98.10
4435;DHT22;46552;52.150;8.428;2022-09-13T00:51:12;18.80;98.10
4435;DHT22;46552;52.150;8.428;2022-09-13T00:53:43;18.70;98.00
4435;DHT22;46552;52.150;8.428;2022-09-13T00:56:18;18.80;98.10
4435;DHT22;46552;52.150;8.428;2022-09-13T00:58:51;18.70;98.00
4435;DHT22;46552;52.150;8.428;2022-09-13T01:01:20;18.80;97.80
4435;DHT22;46552;52.150;8.428;2022-09-13T01:03:49;18.70;98.40
4435;DHT22;46552;52.150;8.428;2022-09-13T01:06:19;18.80;98.10
4435;DHT22;46552;52.150;8.428;2022-09-13T01:08:48;18.80;98.10
4435;DHT22;46552;52.150;8.428;2022-09-13T01:11:19;18.80;98.10
4435;DHT22;46552;52.150;8.428;2022-09-13T01:13:54;18.80;98.10
4435;DHT22;46552;52.150;8.428;2022-09-13T01:16:22;18.80;98.10
4435;DHT22;46552;52.150;8.428;2022-09-13T01:18:50;18.80;98.10
4435;DHT22;46552;52.150;8.428;2022-09-13T01:21:38;18.70;98.00
4435;DHT22;46552;52.150;8.428;2022-09-13T01:24:46;18.80;98.10
4435;DHT22;46552;52.150;8.428;2022-09-13T01:27:29;18.70;98.20
4435;DHT22;46552;52.150;8.428;2022-09-13T01:30:18;18.80;98.30
4435;DHT22;46552;52.150;8.428;2022-09-13T01:35:55;18.70;98.30
4435;DHT22;46552;52.150;8.428;2022-09-13T01:38:41;18.70;98.40
4435;DHT22;46552;52.150;8.428;2022-09-13T01:41:26;18.70;98.40
4435;DHT22;46552;52.150;8.428;2022-09-13T01:44:02;18.60;98.40
4435;DHT22;46552;52.150;8.428;2022-09-13T01:46:40;18.70;98.50
4435;DHT22;46552;52.150;8.428;2022-09-13T01:49:17;18.70;98.50
4435;DHT22;46552;52.150;8.428;2022-09-13T01:51:49;18.70;98.50
4435;DHT22;46552;52.150;8.428;2022-09-13T01:54:23;18.60;98.50
4435;DHT22;46552;52.150;8.428;2022-09-13T01:56:59;18.60;98.60
4435;DHT22;46552;52.150;8.428;2022-09-13T01:59:36;18.70;98.70
4435;DHT22;46552;52.150;8.428;2022-09-13T02:02:09;18.60;98.80
4435;DHT22;46552;52.150;8.428;2022-09-13T02:04:41;18.70;98.90
4435;DHT22;46552;52.150;8.428;2022-09-13T02:07:12;18.70;99.00
4435;DHT22;46552;52.150;8.428;2022-09-13T02:09:45;18.70;99.00
4435;DHT22;46552;52.150;8.428;2022-09-13T02:12:16;18.70;99.00
4435;DHT22;46552;52.150;8.428;2022-09-13T02:14:51;18.70;99.10
4435;DHT22;46552;52.150;8.428;2022-09-13T02:17:23;18.70;99.10
4435;DHT22;46552;52.150;8.428;2022-09-13T02:19:53;18.70;99.20
4435;DHT22;46552;52.150;8.428;2022-09-13T02:22:24;18.60;99.20
4435;DHT22;46552;52.150;8.428;2022-09-13T02:24:55;18.60;99.30
4435;DHT22;46552;52.150;8.428;2022-09-13T02:27:27;18.60;99.50
4435;DHT22;46552;52.150;8.428;2022-09-13T02:29:58;18.60;99.60
4435;DHT22;46552;52.150;8.428;2022-09-13T02:32:35;18.60;99.80
4435;DHT22;46552;52.150;8.428;2022-09-13T02:35:07;18.50;99.90
4435;DHT22;46552;52.150;8.428;2022-09-13T02:37:39;18.50;99.90
4435;DHT22;46552;52.150;8.428;2022-09-13T02:40:11;18.50;99.90
4435;DHT22;46552;52.150;8.428;2022-09-13T02:42:42;18.50;99.90
4435;DHT22;46552;52.150;8.428;2022-09-13T02:45:12;18.50;99.90
4435;DHT22;46552;52.150;8.428;2022-09-13T02:47:49;18.50;99.90
4435;DHT22;46552;52.150;8.428;2022-09-13T02:50:35;18.50;99.90
4435;DHT22;46552;52.150;8.428;2022-09-13T02:53:10;18.40;99.90
4435;DHT22;46552;52.150;8.428;2022-09-13T02:55:43;18.30;99.90
4435;DHT22;46552;52.150;8.428;2022-09-13T02:58:15;18.30;99.90
4435;DHT22;46552;52.150;8.428;2022-09-13T03:00:45;18.30;99.90
4435;DHT22;46552;52.150;8.428;2022-09-13T03:03:15;18.30;99.90
4435;DHT22;46552;52.150;8.428;2022-09-13T03:05:43;18.30;99.90
4435;DHT22;46552;52.150;8.428;2022-09-13T03:08:11;18.30;99.90
4435;DHT22;46552;52.150;8.428;2022-09-13T03:10:47;18.30;99.90
4435;DHT22;46552;52.150;8.428;2022-09-13T03:16:27;18.30;99.90
4435;DHT22;46552;52.150;8.428;2022-09-13T03:19:16;18.30;99.90
4435;DHT22;46552;52.150;8.428;2022-09-13T03:21:58;18.30;99.90
4435;DHT22;46552;52.150;8.428;2022-09-13T03:24:40;18.20;99.90
4435;DHT22;46552;52.150;8.428;2022-09-13T03:27:17;18.20;99.90
4435;DHT22;46552;52.150;8.428;2022-09-13T03:29:53;18.20;99.90
4435;DHT22;46552;52.150;8.428;2022-09-13T03:32:27;18.20;99.90
4435;DHT22;46552;52.150;8.428;2022-09-13T03:35:06;18.20;99.90
4435;DHT22;46552;52.150;8.428;2022-09-13T03:37:43;18.20;99.90
4435;DHT22;46552;52.150;8.428;2022-09-13T03:40:15;18.10;99.90
4435;DHT22;46552;52.150;8.428;2022-09-13T03:42:47;18.10;99.90
4435;DHT22;46552;52.150;8.428;2022-09-13T03:45:19;18.10;99.90
4435;DHT22;46552;52.150;8.428;2022-09-13T03:47:49;18.10;99.90
4435;DHT22;46552;52.150;8.428;2022-09-13T03:50:20;18.10;99.90
4435;DHT22;46552;52.150;8.428;2022-09-13T03:52:51;18.20;99.90
4435;DHT22;46552;52.150;8.428;2022-09-13T03:55:21;18.20;99.90
4435;DHT22;46552;52.150;8.428;2022-09-13T03:57:48;18.10;99.90
4435;DHT22;46552;52.150;8.428;2022-09-13T04:00:16;18.10;99.90
4435;DHT22;46552;52.150;8.428;2022-09-13T04:02:43;18.10;99.90
4435;DHT22;46552;52.150;8.428;2022-09-13T04:05:11;18.10;99.90
4435;DHT22;46552;52.150;8.428;2022-09-13T04:07:39;18.10;99.90
4435;DHT22;46552;52.150;8.428;2022-09-13T04:10:08;18.10;99.90
4435;DHT22;46552;52.150;8.428;2022-09-13T04:12:35;18.00;99.90
4435;DHT22;46552;52.150;8.428;2022-09-13T04:15:04;18.00;99.90
4435;DHT22;46552;52.150;8.428;2022-09-13T04:17:31;18.00;99.90
4435;DHT22;46552;52.150;8.428;2022-09-13T04:19:59;17.90;99.90
4435;DHT22;46552;52.150;8.428;2022-09-13T04:22:26;17.90;99.90
4435;DHT22;46552;52.150;8.428;2022-09-13T04:24:56;17.90;99.90
4435;DHT22;46552;52.150;8.428;2022-09-13T04:27:23;17.80;99.90
4435;DHT22;46552;52.150;8.428;2022-09-13T04:29:50;17.70;99.90
4435;DHT22;46552;52.150;8.428;2022-09-13T04:32:19;17.80;99.90
4435;DHT22;46552;52.150;8.428;2022-09-13T04:34:46;17.70;99.90
4435;DHT22;46552;52.150;8.428;2022-09-13T04:37:13;17.70;99.90
4435;DHT22;46552;52.150;8.428;2022-09-13T04:39:40;17.70;99.90
4435;DHT22;46552;52.150;8.428;2022-09-13T04:42:09;17.80;99.90
4435;DHT22;46552;52.150;8.428;2022-09-13T04:44:37;17.80;99.90
4435;DHT22;46552;52.150;8.428;2022-09-13T04:47:05;17.80;99.90
4435;DHT22;46552;52.150;8.428;2022-09-13T04:49:32;17.80;99.90
4435;DHT22;46552;52.150;8.428;2022-09-13T04:52:00;17.80;99.90
4435;DHT22;46552;52.150;8.428;2022-09-13T04:54:28;17.80;99.90
4435;DHT22;46552;52.150;8.428;2022-09-13T04:56:55;17.80;99.90
4435;DHT22;46552;52.150;8.428;2022-09-13T04:59:24;17.90;99.90
4435;DHT22;46552;52.150;8.428;2022-09-13T05:01:51;17.90;99.90
4435;DHT22;46552;52.150;8.428;2022-09-13T05:04:18;17.90;99.90
4435;DHT22;46552;52.150;8.428;2022-09-13T05:06:45;17.90;99.90
4435;DHT22;46552;52.150;8.428;2022-09-13T05:09:14;17.90;99.90
4435;DHT22;46552;52.150;8.428;2022-09-13T05:11:41;18.00;99.90
4435;DHT22;46552;52.150;8.428;2022-09-13T05:14:09;17.90;99.90
4435;DHT22;46552;52.150;8.428;2022-09-13T05:16:38;18.00;99.90
4435;DHT22;46552;52.150;8.428;2022-09-13T05:19:05;18.00;99.90
4435;DHT22;46552;52.150;8.428;2022-09-13T05:21:32;18.00;99.90
4435;DHT22;46552;52.150;8.428;2022-09-13T05:24:00;18.00;99.90
4435;DHT22;46552;52.150;8.428;2022-09-13T05:26:28;18.00;99.90
4435;DHT22;46552;52.150;8.428;2022-09-13T05:28:57;18.00;99.90
4435;DHT22;46552;52.150;8.428;2022-09-13T05:31:26;18.00;99.90
4435;DHT22;46552;52.150;8.428;2022-09-13T05:33:57;18.00;99.90
4435;DHT22;46552;52.150;8.428;2022-09-13T05:36:25;18.10;99.90
4435;DHT22;46552;52.150;8.428;2022-09-13T05:38:52;18.10;99.90
4435;DHT22;46552;52.150;8.428;2022-09-13T05:41:20;18.10;99.90
4435;DHT22;46552;52.150;8.428;2022-09-13T05:43:47;18.10;99.90
4435;DHT22;46552;52.150;8.428;2022-09-13T05:46:15;18.20;99.90
4435;DHT22;46552;52.150;8.428;2022-09-13T05:48:44;18.30;99.90
4435;DHT22;46552;52.150;8.428;2022-09-13T05:51:15;18.30;99.90
4435;DHT22;46552;52.150;8.428;2022-09-13T05:53:44;18.30;99.90
4435;DHT22;46552;52.150;8.428;2022-09-13T05:56:14;18.30;99.90
4435;DHT22;46552;52.150;8.428;2022-09-13T05:58:43;18.40;99.90
4435;DHT22;46552;52.150;8.428;2022-09-13T06:01:11;18.40;99.90
4435;DHT22;46552;52.150;8.428;2022-09-13T06:03:39;18.40;99.90
4435;DHT22;46552;52.150;8.428;2022-09-13T06:06:07;18.50;99.90
4435;DHT22;46552;52.150;8.428;2022-09-13T06:08:36;18.50;99.90
4435;DHT22;46552;52.150;8.428;2022-09-13T06:11:05;18.50;99.90
4435;DHT22;46552;52.150;8.428;2022-09-13T06:13:34;18.60;99.90
4435;DHT22;46552;52.150;8.428;2022-09-13T06:16:03;18.60;99.90
4435;DHT22;46552;52.150;8.428;2022-09-13T06:18:30;18.60;99.90
4435;DHT22;46552;52.150;8.428;2022-09-13T06:20:58;18.70;99.90
4435;DHT22;46552;52.150;8.428;2022-09-13T06:23:26;18.70;99.90
4435;DHT22;46552;52.150;8.428;2022-09-13T06:26:03;18.70;99.90
4435;DHT22;46552;52.150;8.428;2022-09-13T06:28:33;18.70;99.90
4435;DHT22;46552;52.150;8.428;2022-09-13T06:31:01;18.80;99.90
4435;DHT22;46552;52.150;8.428;2022-09-13T06:33:30;18.90;99.90
4435;DHT22;46552;52.150;8.428;2022-09-13T06:36:02;18.90;99.90
4435;DHT22;46552;52.150;8.428;2022-09-13T06:38:30;19.00;99.90
4435;DHT22;46552;52.150;8.428;2022-09-13T06:41:01;19.00;99.90
4435;DHT22;46552;52.150;8.428;2022-09-13T06:43:29;19.10;99.90
4435;DHT22;46552;52.150;8.428;2022-09-13T06:45:59;19.10;99.90
4435;DHT22;46552;52.150;8.428;2022-09-13T06:48:29;19.20;99.90
4435;DHT22;46552;52.150;8.428;2022-09-13T06:50:57;19.20;99.90
4435;DHT22;46552;52.150;8.428;2022-09-13T06:53:25;19.30;99.90
4435;DHT22;46552;52.150;8.428;2022-09-13T06:56:02;19.30;99.90
4435;DHT22;46552;52.150;8.428;2022-09-13T06:58:31;19.40;99.90
4435;DHT22;46552;52.150;8.428;2022-09-13T07:01:06;19.40;99.90
4435;DHT22;46552;52.150;8.428;2022-09-13T07:03:35;19.50;99.90
4435;DHT22;46552;52.150;8.428;2022-09-13T07:06:06;19.60;99.90
4435;DHT22;46552;52.150;8.428;2022-09-13T07:08:34;19.60;99.90
4435;DHT22;46552;52.150;8.428;2022-09-13T07:11:03;19.60;99.90
4435;DHT22;46552;52.150;8.428;2022-09-13T07:13:30;19.60;99.90
4435;DHT22;46552;52.150;8.428;2022-09-13T07:16:00;19.70;99.90
4435;DHT22;46552;52.150;8.428;2022-09-13T07:18:28;19.70;99.90
4435;DHT22;46552;52.150;8.428;2022-09-13T07:20:58;19.60;99.90
4435;DHT22;46552;52.150;8.428;2022-09-13T07:23:26;19.60;99.90
4435;DHT22;46552;52.150;8.428;2022-09-13T07:25:54;19.60;99.90
4435;DHT22;46552;52.150;8.428;2022-09-13T07:28:28;19.60;99.90
4435;DHT22;46552;52.150;8.428;2022-09-13T07:30:57;19.70;99.90
4435;DHT22;46552;52.150;8.428;2022-09-13T07:33:29;19.70;99.90
4435;DHT22;46552;52.150;8.428;2022-09-13T07:35:57;19.70;99.90
4435;DHT22;46552;52.150;8.428;2022-09-13T07:38:25;19.80;99.90
4435;DHT22;46552;52.150;8.428;2022-09-13T07:40:53;19.80;99.90
4435;DHT22;46552;52.150;8.428;2022-09-13T07:43:23;19.80;99.90
4435;DHT22;46552;52.150;8.428;2022-09-13T07:45:58;19.90;99.90
4435;DHT22;46552;52.150;8.428;2022-09-13T07:48:27;19.90;99.90
4435;DHT22;46552;52.150;8.428;2022-09-13T07:50:58;19.90;99.90
4435;DHT22;46552;52.150;8.428;2022-09-13T07:53:43;20.00;99.90
4435;DHT22;46552;52.150;8.428;2022-09-13T07:56:12;20.10;99.90
4435;DHT22;46552;52.150;8.428;2022-09-13T07:58:40;20.20;99.90
4435;DHT22;46552;52.150;8.428;2022-09-13T08:01:12;20.20;99.90
4435;DHT22;46552;52.150;8.428;2022-09-13T08:03:40;20.20;99.90
4435;DHT22;46552;52.150;8.428;2022-09-13T08:06:08;20.30;99.90
4435;DHT22;46552;52.150;8.428;2022-09-13T08:08:36;20.30;99.90
4435;DHT22;46552;52.150;8.428;2022-09-13T08:11:05;20.30;99.90
4435;DHT22;46552;52.150;8.428;2022-09-13T08:13:33;20.30;99.90
4435;DHT22;46552;52.150;8.428;2022-09-13T08:16:01;20.30;99.90
4435;DHT22;46552;52.150;8.428;2022-09-13T08:18:31;20.30;99.90
4435;DHT22;46552;52.150;8.428;2022-09-13T08:20:58;20.30;99.90
4435;DHT22;46552;52.150;8.428;2022-09-13T08:23:27;20.30;99.90
4435;DHT22;46552;52.150;8.428;2022-09-13T08:25:59;20.30;99.90
4435;DHT22;46552;52.150;8.428;2022-09-13T08:28:27;20.30;99.90
4435;DHT22;46552;52.150;8.428;2022-09-13T08:30:54;20.30;99.90
4435;DHT22;46552;52.150;8.428;2022-09-13T08:33:21;20.30;99.90
4435;DHT22;46552;52.150;8.428;2022-09-13T08:35:52;20.30;99.90
4435;DHT22;46552;52.150;8.428;2022-09-13T08:38:20;20.30;99.90
4435;DHT22;46552;52.150;8.428;2022-09-13T08:40:50;20.30;99.90
4435;DHT22;46552;52.150;8.428;2022-09-13T08:43:25;20.30;99.90
4435;DHT22;46552;52.150;8.428;2022-09-13T08:46:00;20.30;99.90
4435;DHT22;46552;52.150;8.428;2022-09-13T08:48:32;20.30;99.90
4435;DHT22;46552;52.150;8.428;2022-09-13T08:51:08;20.30;99.90
4435;DHT22;46552;52.150;8.428;2022-09-13T08:53:42;20.30;99.90
4435;DHT22;46552;52.150;8.428;2022-09-13T08:56:14;20.40;99.90
4435;DHT22;46552;52.150;8.428;2022-09-13T08:58:50;20.50;99.90
4435;DHT22;46552;52.150;8.428;2022-09-13T09:01:32;20.50;99.90
4435;DHT22;46552;52.150;8.428;2022-09-13T09:04:10;20.60;99.90
4435;DHT22;46552;52.150;8.428;2022-09-13T09:06:42;20.70;99.90
4435;DHT22;46552;52.150;8.428;2022-09-13T09:09:13;20.70;99.90
4435;DHT22;46552;52.150;8.428;2022-09-13T09:11:46;20.70;99.90
4435;DHT22;46552;52.150;8.428;2022-09-13T09:14:18;20.80;99.90
4435;DHT22;46552;52.150;8.428;2022-09-13T09:16:50;20.90;99.90
4435;DHT22;46552;52.150;8.428;2022-09-13T09:19:21;21.00;99.90
4435;DHT22;46552;52.150;8.428;2022-09-13T09:21:52;21.00;99.90
4435;DHT22;46552;52.150;8.428;2022-09-13T09:24:21;21.00;99.90
4435;DHT22;46552;52.150;8.428;2022-09-13T09:26:50;21.00;99.90
4435;DHT22;46552;52.150;8.428;2022-09-13T09:29:20;21.00;99.90
4435;DHT22;46552;52.150;8.428;2022-09-13T09:32:01;21.00;99.90
4435;DHT22;46552;52.150;8.428;2022-09-13T09:34:43;21.00;99.90
4435;DHT22;46552;52.150;8.428;2022-09-13T09:37:19;21.00;99.90
4435;DHT22;46552;52.150;8.428;2022-09-13T09:39:48;21.00;99.90
4435;DHT22;46552;52.150;8.428;2022-09-13T09:42:18;21.00;99.90
4435;DHT22;46552;52.150;8.428;2022-09-13T09:44:49;21.00;99.90
4435;DHT22;46552;52.150;8.428;2022-09-13T09:47:19;21.00;99.90
4435;DHT22;46552;52.150;8.428;2022-09-13T09:49:52;21.00;99.90
4435;DHT22;46552;52.150;8.428;2022-09-13T09:52:42;21.10;99.90
4435;DHT22;46552;52.150;8.428;2022-09-13T09:55:14;21.20;99.90
4435;DHT22;46552;52.150;8.428;2022-09-13T09:57:50;21.20;99.90
4435;DHT22;46552;52.150;8.428;2022-09-13T10:00:18;21.30;99.90
4435;DHT22;46552;52.150;8.428;2022-09-13T10:02:47;21.40;99.90
4435;DHT22;46552;52.150;8.428;2022-09-13T10:05:18;21.50;99.90
4435;DHT22;46552;52.150;8.428;2022-09-13T10:07:53;21.90;99.90
4435;DHT22;46552;52.150;8.428;2022-09-13T10:10:24;22.20;99.90
4435;DHT22;46552;52.150;8.428;2022-09-13T10:12:54;22.60;99.90
4435;DHT22;46552;52.150;8.428;2022-09-13T10:15:24;22.90;99.90
4435;DHT22;46552;52.150;8.428;2022-09-13T10:18:13;23.00;99.90
4435;DHT22;46552;52.150;8.428;2022-09-13T10:20:53;23.20;99.90
4435;DHT22;46552;52.150;8.428;2022-09-13T10:23:27;23.20;99.90
4435;DHT22;46552;52.150;8.428;2022-09-13T10:26:02;23.20;99.90
4435;DHT22;46552;52.150;8.428;2022-09-13T10:28:32;23.20;99.90
4435;DHT22;46552;52.150;8.428;2022-09-13T10:31:05;23.20;99.90
4435;DHT22;46552;52.150;8.428;2022-09-13T10:33:36;23.10;99.90
4435;DHT22;46552;52.150;8.428;2022-09-13T10:36:06;23.00;99.90
4435;DHT22;46552;52.150;8.428;2022-09-13T10:38:37;22.90;99.90
4435;DHT22;46552;52.150;8.428;2022-09-13T10:41:07;22.80;99.90
4435;DHT22;46552;52.150;8.428;2022-09-13T10:43:36;22.80;99.90
4435;DHT22;46552;52.150;8.428;2022-09-13T10:46:05;22.70;99.90
4435;DHT22;46552;52.150;8.428;2022-09-13T10:48:44;22.70;99.90
4435;DHT22;46552;52.150;8.428;2022-09-13T10:51:27;22.70;99.90
4435;DHT22;46552;52.150;8.428;2022-09-13T10:54:14;22.70;99.90
4435;DHT22;46552;52.150;8.428;2022-09-13T10:56:42;22.60;99.90
4435;DHT22;46552;52.150;8.428;2022-09-13T10:59:15;22.70;99.90
4435;DHT22;46552;52.150;8.428;2022-09-13T11:01:48;22.60;99.90
4435;DHT22;46552;52.150;8.428;2022-09-13T11:04:43;22.60;99.90
4435;DHT22;46552;52.150;8.428;2022-09-13T11:07:38;22.60;99.90
4435;DHT22;46552;52.150;8.428;2022-09-13T11:10:17;22.50;99.90
4435;DHT22;46552;52.150;8.428;2022-09-13T11:12:53;22.50;99.90
4435;DHT22;46552;52.150;8.428;2022-09-13T11:15:33;22.50;99.90
4435;DHT22;46552;52.150;8.428;2022-09-13T11:18:31;22.40;99.90
4435;DHT22;46552;52.150;8.428;2022-09-13T11:21:12;22.40;99.90
4435;DHT22;46552;52.150;8.428;2022-09-13T11:24:03;22.30;99.90
4435;DHT22;46552;52.150;8.428;2022-09-13T11:26:45;22.10;99.90
4435;DHT22;46552;52.150;8.428;2022-09-13T11:29:25;22.10;99.90
4435;DHT22;46552;52.150;8.428;2022-09-13T11:32:04;22.10;99.90
4435;DHT22;46552;52.150;8.428;2022-09-13T11:34:40;22.00;99.90
4435;DHT22;46552;52.150;8.428;2022-09-13T11:37:32;22.00;99.90
4435;DHT22;46552;52.150;8.428;2022-09-13T11:40:24;22.00;99.90
4435;DHT22;46552;52.150;8.428;2022-09-13T11:43:06;22.10;99.90
4435;DHT22;46552;52.150;8.428;2022-09-13T11:45:40;22.10;99.90
4435;DHT22;46552;52.150;8.428;2022-09-13T11:51:20;22.20;99.90
4435;DHT22;46552;52.150;8.428;2022-09-13T11:54:17;22.20;99.90
4435;DHT22;46552;52.150;8.428;2022-09-13T11:56:49;22.20;99.90
4435;DHT22;46552;52.150;8.428;2022-09-13T11:59:25;22.10;99.90
4435;DHT22;46552;52.150;8.428;2022-09-13T12:01:58;22.00;99.90
4435;DHT22;46552;52.150;8.428;2022-09-13T12:04:31;22.00;99.90
4435;DHT22;46552;52.150;8.428;2022-09-13T12:07:03;21.90;99.90
4435;DHT22;46552;52.150;8.428;2022-09-13T12:09:35;21.90;99.90
4435;DHT22;46552;52.150;8.428;2022-09-13T12:12:06;21.90;99.90
4435;DHT22;46552;52.150;8.428;2022-09-13T12:14:41;21.90;99.90
4435;DHT22;46552;52.150;8.428;2022-09-13T12:17:22;22.00;99.90
4435;DHT22;46552;52.150;8.428;2022-09-13T12:19:51;22.10;99.90
4435;DHT22;46552;52.150;8.428;2022-09-13T12:22:22;22.20;99.90
4435;DHT22;46552;52.150;8.428;2022-09-13T12:24:52;22.30;99.90
4435;DHT22;46552;52.150;8.428;2022-09-13T12:27:25;22.40;99.90
4435;DHT22;46552;52.150;8.428;2022-09-13T12:29:57;22.50;99.90
4435;DHT22;46552;52.150;8.428;2022-09-13T12:32:28;22.60;99.90
4435;DHT22;46552;52.150;8.428;2022-09-13T12:34:59;22.60;99.90
4435;DHT22;46552;52.150;8.428;2022-09-13T12:41:03;22.70;99.90
4435;DHT22;46552;52.150;8.428;2022-09-13T12:49:59;22.60;99.90
4435;DHT22;46552;52.150;8.428;2022-09-13T12:52:36;22.60;99.90
4435;DHT22;46552;52.150;8.428;2022-09-13T12:55:29;22.50;99.90
4435;DHT22;46552;52.150;8.428;2022-09-13T12:58:15;22.50;99.90
4435;DHT22;46552;52.150;8.428;2022-09-13T13:00:49;22.50;99.90
4435;DHT22;46552;52.150;8.428;2022-09-13T13:03:47;22.40;99.90
4435;DHT22;46552;52.150;8.428;2022-09-13T13:06:26;22.50;99.90
4435;DHT22;46552;52.150;8.428;2022-09-13T13:08:56;22.70;99.90
4435;DHT22;46552;52.150;8.428;2022-09-13T13:11:25;22.80;99.90
4435;DHT22;46552;52.150;8.428;2022-09-13T13:13:55;22.90;99.90
4435;DHT22;46552;52.150;8.428;2022-09-13T13:16:27;23.00;99.90
4435;DHT22;46552;52.150;8.428;2022-09-13T13:18:58;23.20;99.90
4435;DHT22;46552;52.150;8.428;2022-09-13T13:21:35;23.30;99.90
4435;DHT22;46552;52.150;8.428;2022-09-13T13:27:35;23.60;99.90
4435;DHT22;46552;52.150;8.428;2022-09-13T13:33:44;23.50;99.90
4435;DHT22;46552;52.150;8.428;2022-09-13T13:36:24;23.40;99.90
4435;DHT22;46552;52.150;8.428;2022-09-13T13:38:54;23.40;99.90
4435;DHT22;46552;52.150;8.428;2022-09-13T13:41:50;23.30;99.90
4435;DHT22;46552;52.150;8.428;2022-09-13T13:47:55;23.20;99.90
4435;DHT22;46552;52.150;8.428;2022-09-13T13:50:32;23.20;99.90
4435;DHT22;46552;52.150;8.428;2022-09-13T13:53:19;23.20;99.90
4435;DHT22;46552;52.150;8.428;2022-09-13T13:55:48;23.20;99.90
4435;DHT22;46552;52.150;8.428;2022-09-13T13:58:41;23.40;99.90
4435;DHT22;46552;52.150;8.428;2022-09-13T14:01:17;23.70;99.90
4435;DHT22;46552;52.150;8.428;2022-09-13T14:07:00;24.10;99.30
4435;DHT22;46552;52.150;8.428;2022-09-13T14:09:37;24.20;99.20
4435;DHT22;46552;52.150;8.428;2022-09-13T14:12:32;24.30;99.00
4435;DHT22;46552;52.150;8.428;2022-09-13T14:15:14;24.20;98.90
4435;DHT22;46552;52.150;8.428;2022-09-13T14:18:12;24.20;98.90
4435;DHT22;46552;52.150;8.428;2022-09-13T14:21:01;24.20;98.60
4435;DHT22;46552;52.150;8.428;2022-09-13T14:23:41;24.30;98.40
4435;DHT22;46552;52.150;8.428;2022-09-13T14:26:11;24.30;98.30
4435;DHT22;46552;52.150;8.428;2022-09-13T14:28:39;24.30;98.60
4435;DHT22;46552;52.150;8.428;2022-09-13T14:31:13;24.30;98.50
4435;DHT22;46552;52.150;8.428;2022-09-13T14:33:42;24.30;98.50
4435;DHT22;46552;52.150;8.428;2022-09-13T14:36:17;24.40;98.40
4435;DHT22;46552;52.150;8.428;2022-09-13T14:38:49;24.60;98.20
4435;DHT22;46552;52.150;8.428;2022-09-13T14:41:19;24.90;97.90
4435;DHT22;46552;52.150;8.428;2022-09-13T14:43:47;25.10;97.50
4435;DHT22;46552;52.150;8.428;2022-09-13T14:46:19;25.20;97.20
4435;DHT22;46552;52.150;8.428;2022-09-13T14:48:49;25.30;96.90
4435;DHT22;46552;52.150;8.428;2022-09-13T14:51:22;25.30;96.70
4435;DHT22;46552;52.150;8.428;2022-09-13T14:53:52;25.30;96.50
4435;DHT22;46552;52.150;8.428;2022-09-13T14:56:29;25.20;96.50
4435;DHT22;46552;52.150;8.428;2022-09-13T14:59:01;25.10;96.20
4435;DHT22;46552;52.150;8.428;2022-09-13T15:01:31;25.00;96.10
4435;DHT22;46552;52.150;8.428;2022-09-13T15:04:00;25.00;95.80
4435;DHT22;46552;52.150;8.428;2022-09-13T15:06:29;24.90;96.10
4435;DHT22;46552;52.150;8.428;2022-09-13T15:09:13;24.90;96.00
4435;DHT22;46552;52.150;8.428;2022-09-13T15:11:55;25.80;96.10
4435;DHT22;46552;52.150;8.428;2022-09-13T15:14:27;24.90;95.40
4435;DHT22;46552;52.150;8.428;2022-09-13T15:16:59;24.90;95.50
4435;DHT22;46552;52.150;8.428;2022-09-13T15:19:36;24.90;95.30
4435;DHT22;46552;52.150;8.428;2022-09-13T15:22:13;25.00;95.20
4435;DHT22;46552;52.150;8.428;2022-09-13T15:24:46;25.10;95.00
4435;DHT22;46552;52.150;8.428;2022-09-13T15:27:22;25.20;94.90
4435;DHT22;46552;52.150;8.428;2022-09-13T15:29:51;25.20;94.60
4435;DHT22;46552;52.150;8.428;2022-09-13T15:32:21;25.30;94.60
4435;DHT22;46552;52.150;8.428;2022-09-13T15:34:49;25.40;94.10
4435;DHT22;46552;52.150;8.428;2022-09-13T15:37:29;25.30;94.30
4435;DHT22;46552;52.150;8.428;2022-09-13T15:40:18;25.30;94.20
4435;DHT22;46552;52.150;8.428;2022-09-13T15:42:48;25.20;94.40
4435;DHT22;46552;52.150;8.428;2022-09-13T15:45:17;25.10;94.40
4435;DHT22;46552;52.150;8.428;2022-09-13T15:47:45;24.90;94.40
4435;DHT22;46552;52.150;8.428;2022-09-13T15:50:22;24.70;94.40
4435;DHT22;46552;52.150;8.428;2022-09-13T15:52:51;24.50;94.30
4435;DHT22;46552;52.150;8.428;2022-09-13T15:55:19;24.40;94.60
4435;DHT22;46552;52.150;8.428;2022-09-13T15:57:48;24.30;94.60
4435;DHT22;46552;52.150;8.428;2022-09-13T16:00:17;24.20;94.60
4435;DHT22;46552;52.150;8.428;2022-09-13T16:02:45;24.10;94.30
4435;DHT22;46552;52.150;8.428;2022-09-13T16:05:12;24.20;94.60
4435;DHT22;46552;52.150;8.428;2022-09-13T16:07:40;24.10;94.50
4435;DHT22;46552;52.150;8.428;2022-09-13T16:10:16;24.20;94.20
4435;DHT22;46552;52.150;8.428;2022-09-13T16:12:43;24.20;93.90
4435;DHT22;46552;52.150;8.428;2022-09-13T16:15:12;24.20;93.80
4435;DHT22;46552;52.150;8.428;2022-09-13T16:17:40;24.20;93.70
4435;DHT22;46552;52.150;8.428;2022-09-13T16:20:11;24.20;93.60
4435;DHT22;46552;52.150;8.428;2022-09-13T16:22:39;24.20;93.40
4435;DHT22;46552;52.150;8.428;2022-09-13T16:25:07;24.10;93.50
4435;DHT22;46552;52.150;8.428;2022-09-13T16:27:34;24.00;93.40
4435;DHT22;46552;52.150;8.428;2022-09-13T16:30:03;24.00;93.40
4435;DHT22;46552;52.150;8.428;2022-09-13T16:32:32;23.90;93.40
4435;DHT22;46552;52.150;8.428;2022-09-13T16:34:59;23.80;93.50
4435;DHT22;46552;52.150;8.428;2022-09-13T16:37:28;23.80;93.50
4435;DHT22;46552;52.150;8.428;2022-09-13T16:39:55;23.70;93.50
4435;DHT22;46552;52.150;8.428;2022-09-13T16:42:23;23.70;93.60
4435;DHT22;46552;52.150;8.428;2022-09-13T16:44:51;23.60;93.60
4435;DHT22;46552;52.150;8.428;2022-09-13T16:47:18;23.50;93.70
4435;DHT22;46552;52.150;8.428;2022-09-13T16:49:47;23.40;93.80
4435;DHT22;46552;52.150;8.428;2022-09-13T16:52:15;23.30;93.90